Terminal Aerodrome Forecast
Issued by NWS Tulsa, OK

Home | Current Version | Previous Version | Text Only | Print | Product List | Glossary On
Versions: 1 2 3 4 5 6 7 8 9 10 11 12 13 14 15 16 17 18 19 20 21 22 23 24 25
000
FTUS44 KTSA 251724
TAFTUL
TAF
KTUL 251724Z 2518/2618 15015G22KT P6SM FEW020 SCT070 SCT250
     FM252000 20019G28KT P6SM SCT030
     FM260300 19012KT P6SM BKN250
     FM260600 17010KT P6SM OVC015=

USA.gov is the U.S. government's official web portal to all federal, state and local government web resources and services.